Time;durP1;ratioP1;P1;durP2;ratioP2;P2;SDS_P1;SDS_P2;PMS_P1;PMS_P2;Temp;Humidity;BMP_temperature;BMP_pressure;BME280_temperature;BME280_humidity;BME280_pressure;Samples;Min_cycle;Max_cycle;Signal;HPM_P1;HPM_P2
2021/12/21 00:01:59;;;;;;;7.80;5.90;;;0.00;88.30;;;;;;935106;149;27377;-74
2021/12/21 00:04:26;;;;;;;8.90;6.10;;;0.00;88.30;;;;;;949495;150;27290;-74
2021/12/21 00:06:53;;;;;;;9.93;6.67;;;-0.10;88.40;;;;;;939402;147;27284;-74
2021/12/21 00:09:19;;;;;;;7.87;5.53;;;-0.10;88.40;;;;;;932530;153;27333;-74
2021/12/21 00:11:48;;;;;;;11.23;6.30;;;-0.10;88.50;;;;;;950135;149;27396;-74
2021/12/21 00:14:20;;;;;;;10.37;6.23;;;-0.10;88.50;;;;;;934188;151;27323;-74
2021/12/21 00:19:42;;;;;;;9.90;6.77;;;-0.10;88.40;;;;;;931036;152;27391;-74
2021/12/21 00:21:57;;;;;;;8.83;5.87;;;-0.20;88.30;;;;;;938380;151;27281;-75
2021/12/21 00:24:21;;;;;;;11.47;6.47;;;-0.20;88.50;;;;;;941624;151;27749;-74
2021/12/21 00:26:43;;;;;;;11.07;6.60;;;-0.20;89.00;;;;;;932804;149;27334;-75
2021/12/21 00:29:10;;;;;;;10.40;6.63;;;-0.20;88.40;;;;;;936775;152;27376;-75
2021/12/21 00:31:37;;;;;;;7.60;6.27;;;-0.30;88.50;;;;;;939481;151;27376;-75
2021/12/21 00:34:04;;;;;;;9.17;6.17;;;-0.30;88.40;;;;;;932522;151;27372;-74
2021/12/21 00:36:30;;;;;;;11.20;5.67;;;-0.30;88.50;;;;;;936060;149;27463;-74
2021/12/21 00:38:56;;;;;;;6.27;5.63;;;-0.30;88.70;;;;;;945745;149;27332;-75
2021/12/21 00:41:24;;;;;;;7.83;5.20;;;-0.40;88.80;;;;;;930026;149;27297;-74
2021/12/21 00:43:50;;;;;;;7.70;6.10;;;-0.40;89.00;;;;;;941917;149;27674;-74
2021/12/21 00:46:16;;;;;;;8.07;6.00;;;-0.40;89.20;;;;;;932596;149;27366;-74
2021/12/21 00:48:55;;;;;;;9.07;5.70;;;-0.40;89.40;;;;;;930327;149;27366;-74
2021/12/21 00:51:09;;;;;;;9.47;5.40;;;-0.40;89.20;;;;;;933956;149;27282;-74
2021/12/21 00:53:40;;;;;;;7.20;5.10;;;-0.40;89.40;;;;;;949795;149;27681;-74
2021/12/21 00:56:05;;;;;;;7.27;5.23;;;-0.40;89.30;;;;;;939460;150;27380;-74
2021/12/21 00:58:32;;;;;;;10.40;5.80;;;-0.40;89.40;;;;;;942072;151;27338;-75
2021/12/21 01:01:03;;;;;;;15.07;8.03;;;-0.40;89.50;;;;;;944734;151;27293;-74
2021/12/21 01:03:25;;;;;;;9.20;5.90;;;-0.40;89.60;;;;;;941743;151;27321;-74
2021/12/21 01:08:23;;;;;;;8.50;5.57;;;-0.40;89.90;;;;;;939387;151;27403;-74
2021/12/21 01:18:21;;;;;;;8.87;5.70;;;-0.50;89.90;;;;;;949725;151;27360;-74
2021/12/21 01:20:51;;;;;;;7.73;5.53;;;-0.50;89.90;;;;;;938282;151;27273;-74
2021/12/21 01:26:05;;;;;;;11.93;5.53;;;-0.50;90.00;;;;;;943059;151;27341;-74
2021/12/21 01:28:36;;;;;;;10.70;5.90;;;-0.50;90.10;;;;;;939392;151;27283;-74
2021/12/21 01:31:17;;;;;;;7.37;5.13;;;-0.50;90.10;;;;;;935462;151;27347;-74
2021/12/21 01:33:48;;;;;;;8.00;5.27;;;-0.50;90.00;;;;;;941659;151;27308;-74
2021/12/21 01:36:00;;;;;;;6.90;5.03;;;-0.50;90.10;;;;;;943979;151;27394;-74
2021/12/21 01:38:32;;;;;;;9.87;5.70;;;-0.50;90.10;;;;;;938535;151;27422;-74
2021/12/21 01:40:58;;;;;;;7.13;5.23;;;-0.50;90.10;;;;;;933139;151;27366;-74
2021/12/21 01:51:22;;;;;;;6.00;4.17;;;-0.60;89.60;;;;;;940530;151;27343;-74
2021/12/21 01:53:49;;;;;;;8.67;4.73;;;-0.60;89.20;;;;;;931400;151;27489;-74
2021/12/21 01:56:15;;;;;;;5.97;4.17;;;-0.70;89.10;;;;;;941912;151;27360;-74
2021/12/21 01:58:42;;;;;;;7.00;4.40;;;-0.70;88.90;;;;;;936698;151;27287;-74
2021/12/21 02:01:08;;;;;;;8.73;4.67;;;-0.70;88.80;;;;;;943331;149;27308;-74
2021/12/21 02:03:35;;;;;;;7.83;5.03;;;-0.80;88.80;;;;;;944624;149;27408;-74
2021/12/21 02:06:02;;;;;;;6.10;4.83;;;-0.80;88.80;;;;;;956939;149;27471;-74
2021/12/21 02:08:31;;;;;;;6.03;4.50;;;-0.90;88.80;;;;;;929892;151;27309;-74
2021/12/21 02:11:03;;;;;;;5.03;4.27;;;-0.90;88.80;;;;;;936886;151;27429;-74
2021/12/21 02:13:24;;;;;;;8.27;4.80;;;-1.00;88.80;;;;;;936166;152;27350;-74
2021/12/21 02:15:51;;;;;;;5.60;4.73;;;-1.00;88.90;;;;;;940275;152;27361;-74
2021/12/21 02:20:56;;;;;;;7.50;4.37;;;-1.00;89.10;;;;;;935606;152;27436;-74
2021/12/21 02:23:23;;;;;;;8.60;5.37;;;-1.10;89.00;;;;;;932588;152;27470;-75
2021/12/21 02:30:55;;;;;;;8.93;5.60;;;-1.20;89.20;;;;;;941387;151;27414;-74
2021/12/21 02:33:23;;;;;;;9.40;4.73;;;-1.20;89.40;;;;;;940596;149;27391;-74
2021/12/21 02:35:50;;;;;;;9.27;5.33;;;-1.20;89.60;;;;;;942097;149;27351;-74
2021/12/21 02:38:16;;;;;;;7.53;5.43;;;-1.20;89.80;;;;;;932729;149;27660;-74
2021/12/21 02:40:43;;;;;;;9.07;5.57;;;-1.30;90.00;;;;;;960721;149;27279;-74
2021/12/21 02:43:10;;;;;;;7.77;5.77;;;-1.30;90.00;;;;;;947510;149;27291;-74
2021/12/21 02:45:36;;;;;;;9.17;5.23;;;-1.30;90.00;;;;;;940239;149;27320;-74
2021/12/21 02:48:03;;;;;;;7.67;5.33;;;-1.30;90.00;;;;;;938930;152;27414;-74
2021/12/21 02:50:32;;;;;;;8.70;5.20;;;-1.30;89.90;;;;;;937922;149;27361;-74
2021/12/21 02:53:02;;;;;;;10.77;5.90;;;-1.30;89.80;;;;;;946713;149;27749;-75
2021/12/21 02:55:28;;;;;;;9.57;5.50;;;-1.30;90.00;;;;;;940845;150;27389;-74
2021/12/21 02:57:57;;;;;;;6.40;5.10;;;-1.40;89.80;;;;;;940323;151;27321;-74
2021/12/21 03:00:22;;;;;;;5.03;4.53;;;-1.40;90.00;;;;;;941492;151;27331;-74
2021/12/21 03:02:51;;;;;;;7.57;5.40;;;-1.40;89.90;;;;;;934120;152;27406;-74
2021/12/21 03:05:17;;;;;;;10.53;5.97;;;-1.40;90.00;;;;;;934669;151;27447;-74
2021/12/21 03:10:22;;;;;;;9.37;5.40;;;-1.40;90.00;;;;;;942358;151;27338;-74
2021/12/21 03:15:18;;;;;;;9.40;5.57;;;-1.50;90.10;;;;;;934319;151;27337;-74
2021/12/21 03:17:45;;;;;;;8.33;5.27;;;-1.50;90.10;;;;;;940620;151;27375;-74
2021/12/21 03:20:11;;;;;;;8.50;5.30;;;-1.50;90.10;;;;;;940598;151;27300;-75
2021/12/21 03:22:38;;;;;;;5.47;4.27;;;-1.50;90.10;;;;;;940620;151;27364;-75
2021/12/21 03:25:07;;;;;;;8.33;5.27;;;-1.50;90.10;;;;;;917624;154;27367;-74
2021/12/21 03:27:34;;;;;;;6.40;4.70;;;-1.50;90.10;;;;;;936051;153;27334;-74
2021/12/21 03:30:00;;;;;;;7.30;4.87;;;-1.50;90.10;;;;;;941804;150;27393;-74
2021/12/21 03:32:27;;;;;;;6.50;4.80;;;-1.50;90.10;;;;;;927543;153;27407;-74
2021/12/21 03:34:54;;;;;;;7.57;5.33;;;-1.50;90.10;;;;;;931302;152;27426;-74
2021/12/21 03:37:20;;;;;;;5.83;4.63;;;-1.50;90.10;;;;;;934037;152;27644;-74
2021/12/21 03:39:47;;;;;;;6.13;5.07;;;-1.50;90.10;;;;;;932680;152;27758;-74
2021/12/21 03:42:14;;;;;;;6.27;4.73;;;-1.50;90.00;;;;;;933269;152;27393;-74
2021/12/21 03:44:40;;;;;;;7.77;4.50;;;-1.50;90.00;;;;;;935094;152;27354;-74
2021/12/21 03:47:10;;;;;;;8.93;5.43;;;-1.50;90.00;;;;;;936028;152;27326;-74
2021/12/21 03:52:00;;;;;;;5.97;4.27;;;-1.60;90.00;;;;;;947069;150;27285;-74
2021/12/21 03:54:26;;;;;;;6.13;4.03;;;-1.60;89.90;;;;;;919530;154;27353;-74
2021/12/21 03:56:53;;;;;;;6.37;4.33;;;-1.60;89.80;;;;;;929801;152;27403;-74
2021/12/21 03:59:20;;;;;;;8.03;4.97;;;-1.60;89.90;;;;;;950156;148;27243;-72
2021/12/21 04:01:46;;;;;;;5.67;3.80;;;-1.60;89.80;;;;;;934937;151;27448;-75
2021/12/21 04:04:13;;;;;;;6.87;4.70;;;-1.70;89.80;;;;;;941351;151;27346;-75
2021/12/21 04:06:39;;;;;;;5.07;4.07;;;-1.70;90.00;;;;;;944981;148;27691;-75
2021/12/21 04:09:06;;;;;;;8.70;4.80;;;-1.70;90.00;;;;;;939184;151;27257;-75
2021/12/21 04:11:32;;;;;;;9.20;4.90;;;-1.70;90.00;;;;;;950729;148;27254;-77
2021/12/21 04:13:59;;;;;;;7.83;5.00;;;-1.70;90.00;;;;;;951810;147;27986;-77
2021/12/21 04:16:26;;;;;;;5.37;4.43;;;-1.70;90.00;;;;;;939678;151;27350;-77
2021/12/21 04:18:52;;;;;;;6.67;4.37;;;-1.80;89.90;;;;;;945500;148;27374;-77
2021/12/21 04:21:19;;;;;;;7.30;4.63;;;-1.80;89.90;;;;;;948940;148;27395;-77
2021/12/21 04:23:45;;;;;;;6.77;4.77;;;-1.80;89.90;;;;;;943349;148;27422;-77
2021/12/21 04:26:12;;;;;;;8.37;4.50;;;-1.80;89.80;;;;;;938032;151;27432;-78
2021/12/21 04:28:39;;;;;;;7.27;4.60;;;-1.80;89.80;;;;;;939589;148;27296;-78
2021/12/21 04:31:05;;;;;;;7.63;4.73;;;-1.80;90.20;;;;;;943827;151;27325;-77
2021/12/21 04:33:32;;;;;;;5.20;4.70;;;-1.90;89.60;;;;;;934797;150;27469;-77
2021/12/21 04:35:58;;;;;;;8.13;4.50;;;-1.90;89.60;;;;;;951183;148;27395;-77
2021/12/21 04:38:29;;;;;;;7.60;5.03;;;-1.90;89.60;;;;;;938449;151;27341;-77
2021/12/21 04:40:56;;;;;;;7.13;4.60;;;-1.90;89.60;;;;;;945050;148;27305;-78
2021/12/21 04:43:18;;;;;;;7.43;5.20;;;-2.00;89.60;;;;;;963512;148;27406;-77
2021/12/21 04:45:45;;;;;;;7.90;5.53;;;-2.00;89.60;;;;;;942077;151;27342;-77
2021/12/21 04:48:11;;;;;;;5.97;5.07;;;-2.00;89.70;;;;;;942020;151;27535;-77
2021/12/21 04:50:41;;;;;;;9.93;5.80;;;-2.00;89.80;;;;;;938346;151;27326;-77
2021/12/21 04:53:08;;;;;;;8.50;6.10;;;-2.00;90.20;;;;;;950752;148;27373;-75
2021/12/21 04:55:34;;;;;;;11.97;6.47;;;-2.10;89.80;;;;;;937760;148;27461;-76
2021/12/21 04:58:01;;;;;;;12.73;6.47;;;-2.10;90.00;;;;;;951288;151;27428;-76
2021/12/21 05:00:27;;;;;;;12.90;6.77;;;-2.10;89.90;;;;;;940773;150;27285;-76
2021/12/21 05:02:54;;;;;;;9.20;6.43;;;-2.10;90.00;;;;;;937377;148;27276;-76
2021/12/21 05:05:21;;;;;;;8.63;5.97;;;-2.10;89.90;;;;;;942757;150;27336;-76
2021/12/21 05:07:51;;;;;;;9.63;6.83;;;-2.20;89.90;;;;;;938482;150;27300;-76
2021/12/21 05:10:18;;;;;;;12.63;7.03;;;-2.20;90.00;;;;;;945533;149;27334;-76
2021/12/21 05:12:43;;;;;;;15.93;7.27;;;-2.20;90.00;;;;;;952041;148;27372;-76
2021/12/21 05:15:10;;;;;;;16.63;8.33;;;-2.20;90.10;;;;;;950373;147;27423;-76
2021/12/21 05:17:36;;;;;;;16.20;8.40;;;-2.20;90.10;;;;;;947731;148;27264;-76
2021/12/21 05:20:03;;;;;;;13.47;7.40;;;-2.20;90.10;;;;;;936757;150;27323;-76
2021/12/21 05:22:29;;;;;;;11.53;7.43;;;-2.20;90.10;;;;;;941474;148;27383;-76
2021/12/21 05:24:56;;;;;;;9.90;6.50;;;-2.20;90.10;;;;;;942942;151;27297;-76
2021/12/21 05:27:23;;;;;;;9.90;7.07;;;-2.20;90.20;;;;;;950600;148;27373;-76
2021/12/21 05:29:49;;;;;;;8.77;6.37;;;-2.20;90.20;;;;;;948787;151;27309;-76
2021/12/21 05:32:16;;;;;;;9.33;5.97;;;-2.20;90.20;;;;;;943728;150;27366;-76
2021/12/21 05:34:42;;;;;;;10.43;6.57;;;-2.20;90.20;;;;;;949381;148;27361;-76
2021/12/21 05:37:12;;;;;;;7.27;5.83;;;-2.20;90.20;;;;;;947573;148;27410;-76
2021/12/21 05:39:50;;;;;;;10.00;6.27;;;-2.20;90.30;;;;;;942204;151;27689;-76
2021/12/21 05:42:05;;;;;;;7.70;6.40;;;-2.20;90.30;;;;;;943706;151;27322;-77
2021/12/21 05:44:31;;;;;;;6.60;5.03;;;-2.20;90.30;;;;;;943080;150;27421;-77
2021/12/21 05:46:58;;;;;;;8.87;5.50;;;-2.20;90.30;;;;;;944706;149;27303;-76
2021/12/21 05:49:24;;;;;;;7.43;5.63;;;-2.20;90.40;;;;;;939812;148;27413;-76
2021/12/21 05:51:52;;;;;;;7.10;5.37;;;-2.20;90.40;;;;;;942897;151;27270;-77
2021/12/21 05:54:21;;;;;;;6.93;5.17;;;-2.20;90.50;;;;;;944864;151;27438;-76
2021/12/21 05:56:47;;;;;;;6.53;4.63;;;-2.20;90.50;;;;;;948278;151;27380;-76
2021/12/21 05:59:14;;;;;;;9.07;5.37;;;-2.20;90.50;;;;;;941688;148;27347;-76
2021/12/21 06:01:40;;;;;;;8.60;5.53;;;-2.20;90.60;;;;;;938165;148;27427;-76
2021/12/21 06:04:07;;;;;;;6.53;5.30;;;-2.20;90.60;;;;;;948549;147;27319;-76
2021/12/21 06:06:33;;;;;;;8.43;5.83;;;-2.20;90.60;;;;;;940326;150;27448;-76
2021/12/21 06:09:05;;;;;;;8.07;5.77;;;-2.10;90.70;;;;;;935574;150;28062;-76
2021/12/21 06:11:26;;;;;;;6.57;5.17;;;-2.10;90.70;;;;;;946621;148;27735;-76
2021/12/21 06:14:12;;;;;;;8.53;5.50;;;-2.10;90.70;;;;;;944659;148;27283;-76
2021/12/21 06:22:43;;;;;;;8.53;5.63;;;-2.10;90.70;;;;;;943457;148;27451;-76
2021/12/21 06:27:03;;;;;;;12.30;5.70;;;-2.10;90.60;;;;;;942679;150;27410;-75
2021/12/21 06:29:30;;;;;;;11.13;6.03;;;-2.10;90.50;;;;;;940551;150;27327;-75
2021/12/21 06:31:56;;;;;;;8.27;5.97;;;-2.10;90.50;;;;;;946099;151;27336;-75
2021/12/21 06:34:23;;;;;;;7.53;6.00;;;-2.10;90.50;;;;;;929093;153;27420;-75
2021/12/21 06:36:49;;;;;;;7.60;6.30;;;-2.20;90.50;;;;;;946207;149;27317;-76
2021/12/21 06:39:16;;;;;;;8.93;5.90;;;-2.20;90.50;;;;;;930621;149;27357;-77
2021/12/21 06:41:43;;;;;;;9.77;6.07;;;-2.20;90.60;;;;;;939126;150;27625;-76
2021/12/21 06:44:10;;;;;;;9.10;5.63;;;-2.20;90.60;;;;;;952133;147;28763;-76
2021/12/21 06:46:53;;;;;;;14.37;6.67;;;-2.20;90.60;;;;;;950947;147;27358;-76
2021/12/21 06:51:57;;;;;;;10.53;6.17;;;-2.20;90.60;;;;;;929820;153;27441;-77
2021/12/21 06:54:22;;;;;;;11.07;6.13;;;-2.20;90.60;;;;;;932863;151;27427;-76
2021/12/21 06:56:51;;;;;;;9.20;6.20;;;-2.20;90.50;;;;;;935128;149;27421;-77
2021/12/21 06:59:18;;;;;;;9.33;6.53;;;-2.20;90.50;;;;;;941706;148;27794;-75
2021/12/21 07:01:45;;;;;;;8.13;5.83;;;-2.20;90.50;;;;;;934612;148;27888;-77
2021/12/21 07:04:11;;;;;;;7.93;5.47;;;-2.20;90.40;;;;;;930649;150;27327;-77
2021/12/21 07:06:37;;;;;;;10.40;5.23;;;-2.20;90.40;;;;;;951142;148;27330;-76
2021/12/21 07:09:11;;;;;;;9.20;4.93;;;-2.20;90.40;;;;;;966611;146;27266;-76
2021/12/21 07:19:38;;;;;;;5.93;4.73;;;-2.30;90.10;;;;;;942344;151;27383;-76
2021/12/21 07:22:05;;;;;;;7.27;5.40;;;-2.30;90.10;;;;;;936750;149;27484;-77
2021/12/21 07:24:31;;;;;;;8.13;5.47;;;-2.40;90.10;;;;;;954378;146;27297;-77
2021/12/21 07:26:58;;;;;;;6.20;5.30;;;-2.40;90.10;;;;;;933668;150;27293;-77
2021/12/21 07:29:25;;;;;;;7.13;5.23;;;-2.40;90.10;;;;;;939011;149;27308;-77
2021/12/21 07:31:51;;;;;;;6.40;4.87;;;-2.40;90.10;;;;;;943458;149;27350;-77
2021/12/21 07:34:18;;;;;;;8.67;5.57;;;-2.40;90.20;;;;;;960231;146;27292;-76
2021/12/21 07:36:45;;;;;;;9.87;5.10;;;-2.40;90.20;;;;;;948794;146;27306;-77
2021/12/21 07:39:11;;;;;;;7.40;5.03;;;-2.40;90.30;;;;;;934543;153;27374;-77
2021/12/21 07:41:38;;;;;;;7.80;4.70;;;-2.30;90.30;;;;;;933880;152;27340;-77
2021/12/21 07:44:04;;;;;;;7.53;5.90;;;-2.30;90.40;;;;;;947777;150;27388;-77
2021/12/21 07:46:31;;;;;;;15.37;9.10;;;-2.30;90.40;;;;;;936116;150;27323;-77
2021/12/21 07:48:57;;;;;;;26.30;16.13;;;-2.30;90.50;;;;;;949161;149;27232;-77
2021/12/21 07:51:24;;;;;;;19.70;11.93;;;-2.20;90.70;;;;;;943426;146;27288;-77
2021/12/21 07:53:51;;;;;;;15.97;10.23;;;-2.20;90.70;;;;;;940873;149;27326;-77
2021/12/21 07:56:17;;;;;;;14.90;9.03;;;-2.10;90.80;;;;;;956297;149;27290;-77
2021/12/21 07:58:47;;;;;;;13.30;9.07;;;-2.10;90.90;;;;;;964890;146;27263;-77
2021/12/21 08:01:13;;;;;;;16.73;9.07;;;-2.00;91.10;;;;;;941657;147;27402;-78
2021/12/21 08:03:40;;;;;;;19.47;11.40;;;-1.80;91.70;;;;;;940254;150;27402;-77
2021/12/21 08:06:07;;;;;;;19.57;11.70;;;-1.60;92.70;;;;;;923601;150;27292;-77
2021/12/21 08:08:35;;;;;;;15.37;8.23;;;-1.30;93.30;;;;;;939671;149;27305;-77
2021/12/21 08:13:34;;;;;;;9.67;6.17;;;-0.80;93.20;;;;;;950533;150;27365;-77
2021/12/21 08:16:01;;;;;;;7.33;5.40;;;-0.50;92.90;;;;;;950516;150;27299;-77
2021/12/21 08:18:28;;;;;;;11.53;6.37;;;-0.30;92.40;;;;;;947398;150;27759;-75
2021/12/21 08:20:54;;;;;;;9.37;5.17;;;-0.10;91.80;;;;;;925324;152;27263;-76
2021/12/21 08:23:21;;;;;;;9.03;5.37;;;0.00;91.30;;;;;;951146;149;27295;-75
2021/12/21 08:25:47;;;;;;;7.87;4.83;;;0.00;90.90;;;;;;962309;147;27383;-75
2021/12/21 08:28:14;;;;;;;7.03;4.77;;;0.10;90.60;;;;;;936784;153;27394;-75
2021/12/21 08:30:41;;;;;;;6.47;4.60;;;0.10;90.40;;;;;;944820;150;27375;-76
2021/12/21 08:33:07;;;;;;;7.37;4.60;;;0.10;90.20;;;;;;950305;150;27309;-76
2021/12/21 08:35:37;;;;;;;7.03;4.83;;;0.10;90.20;;;;;;936566;151;27313;-76
2021/12/21 08:38:09;;;;;;;7.63;4.63;;;0.10;90.20;;;;;;954965;147;27256;-75
2021/12/21 08:40:38;;;;;;;5.47;4.73;;;0.10;90.20;;;;;;930860;149;27305;-75
2021/12/21 08:42:59;;;;;;;5.70;4.70;;;0.10;90.10;;;;;;922368;154;27375;-75
2021/12/21 08:45:26;;;;;;;6.33;4.53;;;0.20;90.10;;;;;;934220;153;28054;-75
2021/12/21 08:47:55;;;;;;;6.33;4.97;;;0.20;90.20;;;;;;935369;150;27335;-75
2021/12/21 08:50:19;;;;;;;4.27;3.67;;;0.20;90.20;;;;;;934449;152;27294;-75
2021/12/21 08:52:45;;;;;;;8.87;4.93;;;0.20;90.30;;;;;;947462;150;27288;-75
2021/12/21 08:55:12;;;;;;;6.07;4.40;;;0.20;90.40;;;;;;939917;147;27295;-75
2021/12/21 08:57:39;;;;;;;6.57;4.20;;;0.20;90.60;;;;;;945015;147;27964;-76
2021/12/21 09:00:08;;;;;;;7.23;4.90;;;0.30;90.80;;;;;;953992;148;27468;-76
2021/12/21 09:02:37;;;;;;;6.73;4.90;;;0.40;90.90;;;;;;942292;148;27342;-76
2021/12/21 09:05:06;;;;;;;6.60;5.40;;;0.40;90.90;;;;;;944975;151;27278;-75
2021/12/21 09:07:28;;;;;;;6.00;5.40;;;0.50;90.80;;;;;;940818;151;27394;-73
2021/12/21 09:09:55;;;;;;;8.73;5.00;;;0.50;90.60;;;;;;951972;148;27401;-75
2021/12/21 09:12:21;;;;;;;9.87;6.37;;;0.60;90.60;;;;;;939765;148;27360;-75
2021/12/21 09:14:51;;;;;;;9.57;6.43;;;0.60;90.50;;;;;;919935;156;27344;-75
2021/12/21 09:17:17;;;;;;;8.00;5.40;;;0.60;90.40;;;;;;933956;148;27409;-75
2021/12/21 09:19:44;;;;;;;7.20;5.40;;;0.60;90.40;;;;;;944953;151;27353;-75
2021/12/21 09:22:10;;;;;;;8.73;5.00;;;0.70;90.40;;;;;;921295;154;27345;-75
2021/12/21 09:24:37;;;;;;;8.40;5.23;;;0.70;90.50;;;;;;936165;148;27342;-75
2021/12/21 09:27:03;;;;;;;7.17;5.33;;;0.70;90.40;;;;;;936055;150;27445;-75
2021/12/21 09:29:30;;;;;;;7.90;5.17;;;0.70;90.70;;;;;;948068;150;27349;-75
2021/12/21 09:31:57;;;;;;;7.37;5.50;;;0.80;90.40;;;;;;936838;150;27379;-75
2021/12/21 09:34:23;;;;;;;8.73;6.37;;;0.80;90.50;;;;;;945634;148;27383;-75
2021/12/21 09:36:52;;;;;;;8.10;6.00;;;0.80;90.50;;;;;;948540;150;27409;-75
2021/12/21 09:39:16;;;;;;;5.50;4.87;;;0.80;90.50;;;;;;937372;150;27363;-74
2021/12/21 09:41:43;;;;;;;9.30;5.33;;;0.80;90.60;;;;;;939773;150;27315;-76
2021/12/21 09:44:10;;;;;;;6.50;5.30;;;0.90;90.60;;;;;;938769;150;27317;-75
2021/12/21 09:46:36;;;;;;;6.00;4.67;;;0.90;90.60;;;;;;950703;148;27348;-75
2021/12/21 09:49:03;;;;;;;7.17;4.77;;;0.90;90.70;;;;;;956252;148;27385;-75
2021/12/21 09:51:29;;;;;;;6.63;4.43;;;1.00;90.80;;;;;;950042;148;27326;-75
2021/12/21 09:54:02;;;;;;;6.23;4.77;;;1.00;90.90;;;;;;947113;148;27309;-75
2021/12/21 09:56:28;;;;;;;7.03;5.33;;;1.00;90.90;;;;;;947009;150;27391;-75
2021/12/21 09:58:55;;;;;;;4.83;4.33;;;1.10;91.00;;;;;;944823;150;27261;-75
2021/12/21 10:01:22;;;;;;;5.70;4.77;;;1.10;91.00;;;;;;945163;152;27289;-75
2021/12/21 10:03:48;;;;;;;6.83;5.20;;;1.20;91.10;;;;;;939282;152;27423;-75
2021/12/21 10:06:15;;;;;;;4.80;4.13;;;1.20;91.10;;;;;;937234;149;27410;-75
2021/12/21 10:08:42;;;;;;;6.57;5.57;;;1.30;91.10;;;;;;931881;152;27344;-75
2021/12/21 10:11:08;;;;;;;5.87;5.07;;;1.40;91.10;;;;;;941190;152;27361;-75
2021/12/21 10:13:34;;;;;;;8.00;5.83;;;1.40;91.20;;;;;;928649;152;27456;-74
2021/12/21 10:16:02;;;;;;;6.33;5.17;;;1.40;91.30;;;;;;938402;149;27406;-74
2021/12/21 10:18:31;;;;;;;8.40;5.17;;;1.50;91.40;;;;;;936714;149;27450;-74
2021/12/21 10:20:57;;;;;;;5.47;4.67;;;1.60;91.40;;;;;;938631;149;27327;-74
2021/12/21 10:23:27;;;;;;;8.13;4.97;;;1.70;91.40;;;;;;943179;149;27443;-74
2021/12/21 10:25:59;;;;;;;7.07;4.47;;;1.80;91.50;;;;;;935060;152;27310;-74
2021/12/21 10:28:29;;;;;;;6.50;5.40;;;1.90;91.50;;;;;;935955;149;27267;-74
2021/12/21 10:30:55;;;;;;;7.80;5.43;;;2.00;91.90;;;;;;943158;149;27352;-74
2021/12/21 10:33:28;;;;;;;10.50;6.70;;;2.10;91.40;;;;;;936285;149;27294;-74
2021/12/21 10:35:55;;;;;;;7.50;6.07;;;2.20;91.30;;;;;;934846;149;27332;-76
2021/12/21 10:38:52;;;;;;;7.57;5.47;;;2.30;91.20;;;;;;954094;149;27337;-77
2021/12/21 10:41:18;;;;;;;8.27;6.13;;;2.30;91.00;;;;;;944934;149;27318;-75
2021/12/21 10:43:57;;;;;;;8.70;6.10;;;2.40;90.90;;;;;;940630;152;27317;-75
2021/12/21 10:46:23;;;;;;;7.40;6.07;;;2.50;90.90;;;;;;930250;151;27435;-76
2021/12/21 10:48:50;;;;;;;8.80;6.80;;;2.50;90.80;;;;;;943878;149;27307;-76
2021/12/21 10:51:16;;;;;;;8.43;6.50;;;2.60;90.80;;;;;;929168;152;27440;-76
2021/12/21 10:53:46;;;;;;;9.07;6.27;;;2.60;90.80;;;;;;940640;149;27320;-76
2021/12/21 10:56:13;;;;;;;7.77;5.50;;;2.70;90.70;;;;;;937745;149;27513;-75
2021/12/21 10:58:39;;;;;;;7.27;5.23;;;2.70;90.70;;;;;;933836;149;27373;-76
2021/12/21 11:01:06;;;;;;;6.00;4.60;;;2.80;90.70;;;;;;940282;150;27764;-76
2021/12/21 11:03:37;;;;;;;5.70;4.33;;;2.80;90.60;;;;;;931547;149;27504;-76
2021/12/21 11:06:12;;;;;;;5.63;4.47;;;2.80;90.50;;;;;;944497;152;27430;-76
2021/12/21 11:08:38;;;;;;;5.07;4.40;;;2.90;90.80;;;;;;937675;149;27499;-75
2021/12/21 11:11:09;;;;;;;7.70;5.00;;;2.90;90.40;;;;;;929140;149;27285;-75
2021/12/21 11:13:31;;;;;;;7.70;4.90;;;2.90;90.40;;;;;;937174;152;27379;-75
2021/12/21 11:15:59;;;;;;;5.73;4.70;;;3.00;90.40;;;;;;941086;149;27301;-75
2021/12/21 11:18:24;;;;;;;8.10;5.37;;;3.00;90.40;;;;;;943248;149;27343;-75
2021/12/21 11:20:50;;;;;;;5.03;4.53;;;3.10;90.40;;;;;;931215;152;27359;-75
2021/12/21 11:23:17;;;;;;;5.10;4.60;;;3.10;90.40;;;;;;937986;152;27326;-75
2021/12/21 11:25:44;;;;;;;5.30;4.67;;;3.10;90.40;;;;;;945849;149;27435;-75
2021/12/21 11:28:13;;;;;;;8.33;4.90;;;3.10;90.50;;;;;;935733;151;27295;-75
2021/12/21 11:30:39;;;;;;;5.23;4.77;;;3.20;90.50;;;;;;939011;152;27318;-75
2021/12/21 11:33:07;;;;;;;6.80;5.00;;;3.20;90.50;;;;;;937867;149;27436;-75
2021/12/21 11:37:59;;;;;;;5.43;4.87;;;3.30;90.50;;;;;;939348;149;27358;-75
2021/12/21 11:40:26;;;;;;;6.97;4.57;;;3.30;90.40;;;;;;935641;149;27369;-75
2021/12/21 11:42:52;;;;;;;5.53;4.80;;;3.30;90.40;;;;;;937974;149;27403;-75
2021/12/21 11:45:22;;;;;;;7.47;4.93;;;3.40;90.40;;;;;;930069;153;27323;-75
2021/12/21 11:47:54;;;;;;;8.40;5.17;;;3.40;90.30;;;;;;936960;152;27425;-75
2021/12/21 11:50:21;;;;;;;5.83;4.30;;;3.40;90.30;;;;;;940875;149;27245;-75
2021/12/21 11:52:47;;;;;;;7.53;5.00;;;3.50;90.20;;;;;;936641;148;27381;-75
2021/12/21 11:55:14;;;;;;;5.47;4.23;;;3.50;90.20;;;;;;945519;149;27436;-75
2021/12/21 11:57:46;;;;;;;5.23;4.73;;;3.50;90.10;;;;;;936196;149;27787;-75
2021/12/21 12:00:18;;;;;;;6.60;4.37;;;3.60;90.20;;;;;;931219;152;27312;-75
2021/12/21 12:02:45;;;;;;;4.53;3.90;;;3.60;90.20;;;;;;938282;151;27309;-75
2021/12/21 12:05:17;;;;;;;6.27;3.90;;;3.60;90.10;;;;;;943821;151;27314;-75
2021/12/21 12:07:44;;;;;;;5.83;4.20;;;3.60;90.10;;;;;;937055;151;27370;-75
2021/12/21 12:10:13;;;;;;;4.33;3.93;;;3.70;90.10;;;;;;938217;152;27333;-75
2021/12/21 12:12:43;;;;;;;3.93;3.37;;;3.70;90.10;;;;;;938637;151;27339;-75
2021/12/21 12:15:09;;;;;;;4.67;3.90;;;3.70;90.10;;;;;;940218;151;27303;-75
2021/12/21 12:17:48;;;;;;;4.03;3.63;;;3.70;90.10;;;;;;939461;151;27391;-75
2021/12/21 12:20:15;;;;;;;4.07;3.43;;;3.80;90.10;;;;;;936499;152;27470;-75
2021/12/21 12:22:41;;;;;;;4.00;3.33;;;3.80;90.10;;;;;;933649;151;27334;-75
2021/12/21 12:25:08;;;;;;;4.13;3.53;;;3.90;90.10;;;;;;941620;151;27431;-75
2021/12/21 12:27:35;;;;;;;3.73;3.30;;;3.90;90.10;;;;;;940392;151;27455;-75
2021/12/21 12:30:01;;;;;;;3.90;3.60;;;3.90;90.00;;;;;;941092;151;27380;-75
2021/12/21 12:32:36;;;;;;;4.13;3.73;;;4.00;90.00;;;;;;934697;151;27382;-75
2021/12/21 12:35:06;;;;;;;4.37;3.53;;;4.00;90.00;;;;;;933738;151;27369;-75
2021/12/21 12:37:33;;;;;;;4.07;3.60;;;4.00;89.90;;;;;;941103;151;27265;-75
2021/12/21 12:40:05;;;;;;;4.43;3.87;;;4.10;89.90;;;;;;942929;151;27416;-75
2021/12/21 12:42:33;;;;;;;3.80;3.40;;;4.10;89.90;;;;;;939614;151;27439;-75
2021/12/21 12:45:02;;;;;;;4.17;3.70;;;4.20;89.80;;;;;;941060;151;27317;-75
2021/12/21 12:47:28;;;;;;;4.23;3.80;;;4.20;89.70;;;;;;942003;151;27472;-75
2021/12/21 12:49:55;;;;;;;4.47;3.47;;;4.20;89.60;;;;;;933388;151;27404;-76
2021/12/21 12:52:31;;;;;;;5.30;3.73;;;4.30;89.50;;;;;;937830;151;27266;-76
2021/12/21 12:54:59;;;;;;;5.00;3.73;;;4.30;89.50;;;;;;936566;151;27417;-75
2021/12/21 12:57:31;;;;;;;4.80;3.93;;;4.30;89.40;;;;;;940925;151;27442;-75
2021/12/21 13:00:13;;;;;;;4.77;4.23;;;4.30;89.30;;;;;;932793;151;27484;-75
2021/12/21 13:02:40;;;;;;;4.93;4.00;;;4.40;89.20;;;;;;938421;151;27776;-75
2021/12/21 13:05:06;;;;;;;4.90;4.03;;;4.40;89.20;;;;;;931000;149;27410;-75
2021/12/21 13:07:33;;;;;;;7.20;4.10;;;4.40;89.00;;;;;;913410;151;27358;-75
2021/12/21 13:10:05;;;;;;;5.13;3.60;;;4.50;89.00;;;;;;923149;152;27432;-75
2021/12/21 13:12:32;;;;;;;6.00;3.70;;;4.50;88.90;;;;;;928563;149;27362;-75
2021/12/21 13:14:59;;;;;;;3.93;3.43;;;4.50;88.80;;;;;;918865;154;27429;-75
2021/12/21 13:17:25;;;;;;;6.70;4.00;;;4.50;88.60;;;;;;934586;153;27301;-75
2021/12/21 13:19:52;;;;;;;5.27;3.80;;;4.60;88.70;;;;;;935216;149;27360;-75
2021/12/21 13:22:21;;;;;;;4.67;3.60;;;4.60;88.40;;;;;;930593;149;27446;-75
2021/12/21 13:24:48;;;;;;;5.63;3.97;;;4.60;88.30;;;;;;921786;153;27317;-75
2021/12/21 13:27:14;;;;;;;3.70;3.20;;;4.70;88.10;;;;;;953555;149;27373;-75
2021/12/21 13:29:42;;;;;;;6.13;4.40;;;4.70;88.00;;;;;;928205;151;27440;-75
2021/12/21 13:32:11;;;;;;;4.33;3.93;;;4.70;87.80;;;;;;934568;151;27394;-75
2021/12/21 13:34:34;;;;;;;4.97;3.57;;;4.70;87.60;;;;;;931065;149;27835;-75
2021/12/21 13:37:01;;;;;;;4.70;3.67;;;4.80;87.70;;;;;;933814;149;27642;-75
2021/12/21 13:39:27;;;;;;;4.17;3.70;;;4.80;87.50;;;;;;933958;151;27359;-75
2021/12/21 13:42:00;;;;;;;6.67;3.40;;;4.80;87.40;;;;;;935125;153;27304;-75
2021/12/21 13:44:26;;;;;;;6.93;3.40;;;4.80;87.40;;;;;;946049;149;27596;-75
2021/12/21 13:46:53;;;;;;;4.63;3.60;;;4.80;87.20;;;;;;932919;149;27785;-75
2021/12/21 13:49:19;;;;;;;20.17;11.17;;;4.80;87.10;;;;;;931716;153;27423;-75
2021/12/21 13:51:52;;;;;;;13.90;8.03;;;4.90;87.10;;;;;;929126;152;27313;-75
2021/12/21 13:54:19;;;;;;;5.87;4.70;;;4.90;87.00;;;;;;941295;149;27885;-75